Campanya Meteocatpedra
Centenari de l'SMC: 100 anys mirant el cel

Dades de l'estació automàtica Port de Barcelona - Bocana Sud

?
?

Resum diari

23:00 TU
Dades diàries de l'estació meteorològica
Ratxa màxima del vent (10 m) 51.5 km/h - 42º 20:00 TU

El tram horari està expressat en Temps Universal (TU). Cal sumar una hora en horari d'hivern i dues en horari d'estiu per passar a l'hora oficial.

Port de Barcelona - Bocana Sud

Metadades estació meteorològica
Municipi El Prat de Llobregat
Comarca Baix Llobregat
Altitud 3 m
Data alta 08.04.2015
Estat actual Operativa
Dades de període
Període
TU
VVM (10 m)
km/h
DVM (10 m)
graus
VVX (10 m)
km/h
00:00 - 00:30 6.5 288 8.3
00:30 - 01:00 9.4 278 11.9
01:00 - 01:30 10.1 281 13.0
01:30 - 02:00 8.6 288 11.2
02:00 - 02:30 9.0 288 11.9
02:30 - 03:00 9.4 297 13.0
03:00 - 03:30 8.6 294 11.2
03:30 - 04:00 10.1 290 14.8
04:00 - 04:30 10.8 297 15.1
04:30 - 05:00 11.5 301 14.8
05:00 - 05:30 11.5 302 15.8
05:30 - 06:00 10.8 299 17.6
06:00 - 06:30 16.6 315 21.2
06:30 - 07:00 17.6 310 24.5
07:00 - 07:30 22.7 308 28.4
07:30 - 08:00 21.6 314 27.4
08:00 - 08:30 18.0 307 25.2
08:30 - 09:00 18.7 307 24.8
09:00 - 09:30 10.4 307 17.6
09:30 - 10:00 5.4 314 12.2
10:00 - 10:30 7.9 88 11.2
10:30 - 11:00 8.6 102 13.0
11:00 - 11:30 13.0 112 19.1
11:30 - 12:00 17.3 113 21.6
12:00 - 12:30 20.2 113 27.0
12:30 - 13:00 21.6 122 38.9
13:00 - 13:30 22.7 121 30.6
13:30 - 14:00 15.8 135 27.0
14:00 - 14:30 14.8 139 25.9
14:30 - 15:00 15.5 141 30.2
15:00 - 15:30 21.6 134 36.4
15:30 - 16:00 25.6 131 39.6
16:00 - 16:30 32.4 112 42.5
16:30 - 17:00 27.4 121 42.5
17:00 - 17:30 22.0 138 38.2
17:30 - 18:00 25.6 124 37.8
18:00 - 18:30 34.9 44 49.7
18:30 - 19:00 28.4 55 41.0
19:00 - 19:30 35.6 44 48.6
19:30 - 20:00 37.4 50 47.2
20:00 - 20:30 37.1 53 51.5
20:30 - 21:00 30.2 56 42.1
21:00 - 21:30 23.0 60 32.4
21:30 - 22:00 22.7 53 36.0
22:00 - 22:30 19.4 47 28.4
22:30 - 23:00 15.5 32 22.7
23:00 - 23:30 15.8 25 22.7

Les dades en taronja només han passat un control de qualitat automàtic. Resta pendent la seva validació definitiva.